首页
METAR-TAF:

METAR-TAF

机场 :

Northwest Florida Regional Airport / Eglin Air Force Base

瓦尔帕莱索, 佛罗里达州, 美国

纬度: 30-29N, 经度: 086-31W, 海拔: 26米

当前天气观测

该预报发布于1小时和0分钟前的21:55 UTC
风速8节,风向东南
温度 33°C
湿度 59%
气压 1015 hPa
能見度: 16.1公里
天空无云

METAR: KVPS 152155Z AUTO 13008KT 10SM CLR 33/24 A2997 RMK AO2 SLP155 T03280240 $

时间: 17:55 (22:55 UTC)

预报

该预报发布于3小时和10分钟前的19:45 UTC
预报有效从15日的 19点(UTC)到 16日的 23点(UTC)
风速9节,风向南转西南
能见度10公里或以上
少量云层高于4000英尺
散云层高于15000英尺
短暂存在
从 15日的 19点(UTC)到 15日的 23点(UTC)
能見度: 8000
多云层高于3000英尺, 积雨云.
雷暴, 小雨
成为
从 15日的 23点(UTC)到 15日的 24点(UTC)
风速6节,风向西南
能见度10公里或以上
少量云层高于4000英尺
成为
从 16日的 06点(UTC)到 16日的 07点(UTC)
风速6节,风向西北
能见度10公里或以上
散云层高于2000英尺
多云层高于8000英尺
成为
从 16日的 16点(UTC)到 16日的 17点(UTC)
风速9节,风向南转西南
能見度: 9000
散云层高于2000英尺, 积雨云.
多云层高于4000英尺
小阵雨, 附近有雷暴
短暂存在
从 16日的 18点(UTC)到 16日的 21点(UTC)
能見度: 8000
多云层高于2000英尺, 积雨云.
雷暴, 小雨,

TAF: KVPS 151945Z 1519/1623 21009KT 9999 FEW040 SCT150 QNH3008INS TEMPO 1519/1523 8000 -TSRA BKN030CB BECMG 1523/1524 23006KT 9999 FEW040 QNH3006INS BECMG 1606/1607 31006KT 9999 SCT020 BKN080 QNH3005INS BECMG 1616/1617 21009KT 9000 -SHRA VCTS SCT020CB BKN040 QNH3005INS TEMPO 1618/1621 8000 -TSRA BKN020CB TX34/1520Z TN27/1611Z

超过4000个机场的气象观测和天气预报(METAR&TAF报告)。

可查询的气象台以黄色和红色小点在地图上表示。

将鼠标移到小点上方,可查看气象台名称。

然后点击查看天气观测和预报。

如需切换地图:点击带黑十字的绿色按钮放大地图;点击带横线的绿色按钮缩小地图;或者点击绿色箭头查看邻近地区的地图。


METAR-TAF: